Flight Track Log - Related Links

Times and Time Zones

All times are in EDT time to prevent confusion due to time zone crossing. See the UCA4838 flight status page for this flight to view local times or setup timezone preferences in your user account.

Time Position Orientation Groundspeed Altitude Reporting Facility
EDT Latitude Longitude Course Direction KTS MPH feet Rate Location/Type
Wed 09:33:21 AM 42.7506 -73.8256 278° West 139 160 1,000  Level Boston Center
Wed 09:33:39 AM 42.7522 -73.8425 278° West 140 161 1,500 1,139 Climbing Boston Center
Wed 09:34:40 AM 42.7206 -73.8731 215° Southwest 159 183 2,500 1,181 Climbing Boston Center
Wed 09:35:46 AM 42.6744 -73.8972 201° Southwest 162 186 4,000 1,228 Climbing Boston Center
Wed 09:36:47 AM 42.6303 -73.9272 207° Southwest 173 199 5,100 1,145 Climbing Boston Center
Wed 09:37:36 AM 42.5947 -73.9517 207° Southwest 184 212 6,100 1,211 Climbing Boston Center
Wed 09:38:36 AM 42.5483 -73.9817 205° Southwest 186 214 7,300 1,240 Climbing Boston Center
Wed 09:39:37 AM 42.5000 -74.0114 204° Southwest 193 222 8,600 1,279 Climbing Boston Center
Wed 09:40:38 AM 42.4494 -74.0467 207° Southwest 195 224 9,900 923 Climbing Boston Center
Wed 09:41:08 AM 42.4242 -74.0603 202° Southwest 201 231 10,000 67 Climbing Boston Center
Wed 09:42:08 AM 42.3694 -74.0953 205° Southwest 258 297 10,000  Level Boston Center
Wed 09:43:08 AM 42.3022 -74.1411 207° Southwest 268 308 10,000  Level Boston Center
Wed 09:44:08 AM 42.2389 -74.1844 207° Southwest 268 308 10,000  Level Boston Center
Wed 09:45:08 AM 42.1736 -74.2331 209° Southwest 268 308 10,000 -50 Level Boston Center
Wed 09:46:08 AM 42.1064 -74.2758 205° Southwest 263 303 9,900 -450 Descending Boston Center
Wed 09:47:08 AM 42.0369 -74.3075 199° South 263 303 9,100 -850 Descending Boston Center
Wed 09:48:08 AM 41.9656 -74.3386 198° South 268 308 8,200 -550 Descending Boston Center
Wed 09:49:08 AM 41.8983 -74.3731 201° Southwest 268 308 8,000 -100 Descending Boston Center
Wed 09:50:08 AM 41.8289 -74.4044 199° South 268 308 8,000  Level Boston Center
Wed 09:51:08 AM 41.7575 -74.4328 196° South 263 303 8,000  Level Boston Center
Wed 09:52:20 AM 41.6903 -74.4611 197° South 258 297 8,000  Level Boston Center
Wed 09:53:20 AM 41.6125 -74.5003 201° Southwest 253 291 8,000  Level Boston Center
Wed 09:54:20 AM 41.5453 -74.5286 198° South 253 291 8,000 -640 Level Boston Center
Wed 09:56:18 AM 41.4167 -74.5833 198° South 250 288 6,100 -698 Descending New York TRACON
Wed 09:57:12 AM 41.3500 -74.5667 169° South 242 278 6,000 -53 Descending New York TRACON
Wed 09:58:12 AM 41.3000 -74.5167 143° Southeast 253 291 6,000 53 Level New York TRACON
Wed 09:59:06 AM 41.2500 -74.4667 143° Southeast 252 290 6,100 50 Climbing New York TRACON
Wed 10:00:12 AM 41.1833 -74.4000 143° Southeast 254 292 6,100 -350 Level New York TRACON
Wed 10:01:06 AM 41.1333 -74.3500 143° Southeast 258 297 5,400 -526 Descending New York TRACON
Wed 10:02:06 AM 41.0833 -74.2833 135° Southeast 252 290 5,100 -158 Descending New York TRACON
Wed 10:03:00 AM 41.0333 -74.2333 143° Southeast 247 284 5,100 -263 Level New York TRACON
Wed 10:04:00 AM 40.9833 -74.1833 143° Southeast 246 283 4,600 -500 Descending New York TRACON
Wed 10:05:00 AM 40.9167 -74.1333 150° Southeast 238 274 4,100 -400 Descending New York TRACON
Wed 10:06:00 AM 40.8833 -74.0833 131° Southeast 196 226 3,800 -526 Descending New York TRACON
Wed 10:06:54 AM 40.8333 -74.0667 166° South 187 215 3,100 -895 Descending New York TRACON
Wed 10:07:54 AM 40.7833 -74.1000 207° Southwest 181 208 2,100 -1,000 Descending New York TRACON
Wed 10:08:48 AM 40.7500 -74.1333 217° Southwest 157 181 1,200 -842 Descending New York TRACON
Wed 10:09:48 AM 40.7167 -74.1500 201° Southwest 132 152 500 -700 Descending New York TRACON

Login

Don't have an account? Register now (free) for customized features, flight alerts, and more!